Time;durP1;ratioP1;P1;durP2;ratioP2;P2;SDS_P1;SDS_P2;PMS_P1;PMS_P2;Temp;Humidity;BMP_temperature;BMP_pressure;BME280_temperature;BME280_humidity;BME280_pressure;Samples;Min_cycle;Max_cycle;Signal;HPM_P1;HPM_P2
2021/03/16 00:01:20;;;;;;;6.23;1.70;;;3.10;99.90;;;;;;5011907;28;20471;-79
2021/03/16 00:03:50;;;;;;;3.30;1.10;;;3.10;99.90;;;;;;5011573;28;20467;-80
2021/03/16 00:06:44;;;;;;;6.13;1.47;;;3.10;99.90;;;;;;5007288;28;20510;-79
2021/03/16 00:09:11;;;;;;;5.70;1.40;;;3.00;99.90;;;;;;5006301;28;20534;-80
2021/03/16 00:11:38;;;;;;;8.67;1.30;;;3.00;99.90;;;;;;5006398;28;21278;-80
2021/03/16 00:14:06;;;;;;;6.33;1.20;;;3.00;99.90;;;;;;5003192;28;20462;-79
2021/03/16 00:16:34;;;;;;;4.40;1.30;;;3.00;99.90;;;;;;5010173;28;20493;-79
2021/03/16 00:19:01;;;;;;;5.43;1.13;;;3.00;99.90;;;;;;5006641;28;21034;-79
2021/03/16 00:21:29;;;;;;;5.83;1.40;;;3.00;99.90;;;;;;4991695;28;20477;-79
2021/03/16 00:23:56;;;;;;;6.00;1.80;;;2.90;99.90;;;;;;4991506;28;20506;-79
2021/03/16 00:26:23;;;;;;;6.50;1.30;;;3.00;99.90;;;;;;5021382;28;20537;-80
2021/03/16 00:28:51;;;;;;;7.03;1.70;;;3.00;99.90;;;;;;5010250;28;20483;-79
2021/03/16 00:31:18;;;;;;;8.30;1.70;;;3.00;99.90;;;;;;5011087;28;20511;-79
2021/03/16 00:33:48;;;;;;;3.93;0.87;;;2.90;99.90;;;;;;5010676;28;20483;-79
2021/03/16 00:36:16;;;;;;;6.57;1.40;;;3.00;99.90;;;;;;5011001;28;20957;-79
2021/03/16 00:38:44;;;;;;;3.17;1.10;;;3.00;99.90;;;;;;5010418;28;21115;-79
2021/03/16 00:41:13;;;;;;;7.83;1.30;;;2.90;99.90;;;;;;5010182;28;20520;-79
2021/03/16 00:43:40;;;;;;;4.53;1.03;;;2.90;99.90;;;;;;5009992;28;21136;-79
2021/03/16 00:46:09;;;;;;;6.17;1.40;;;2.90;99.90;;;;;;4999487;28;20493;-79
2021/03/16 00:48:37;;;;;;;5.13;1.50;;;3.00;99.90;;;;;;5013972;28;20467;-80
2021/03/16 00:51:07;;;;;;;5.87;1.50;;;2.90;99.90;;;;;;5021996;28;20895;-79
2021/03/16 00:53:35;;;;;;;4.20;1.13;;;3.10;99.90;;;;;;5025287;28;20485;-79
2021/03/16 00:56:08;;;;;;;6.77;2.00;;;3.00;99.90;;;;;;5025937;28;20480;-79
2021/03/16 00:58:35;;;;;;;5.90;1.73;;;3.10;99.90;;;;;;5009841;28;20492;-79
2021/03/16 01:01:07;;;;;;;7.13;1.47;;;3.50;99.90;;;;;;4998550;28;20481;-79
2021/03/16 01:03:35;;;;;;;6.90;1.80;;;3.60;99.90;;;;;;4990541;28;20828;-79
2021/03/16 01:06:06;;;;;;;6.57;2.00;;;3.50;99.90;;;;;;5003339;28;20624;-80
2021/03/16 01:08:34;;;;;;;4.83;1.53;;;3.80;99.90;;;;;;5000566;28;20630;-81
2021/03/16 01:11:02;;;;;;;17.60;3.40;;;3.90;99.90;;;;;;4999674;28;20478;-79
2021/03/16 01:13:31;;;;;;;4.67;1.50;;;3.90;99.90;;;;;;4998852;28;21246;-79
2021/03/16 01:16:00;;;;;;;5.13;1.53;;;3.90;99.90;;;;;;5006563;28;20483;-79
2021/03/16 01:18:27;;;;;;;8.63;1.80;;;3.90;99.90;;;;;;5008058;28;20492;-79
2021/03/16 01:20:55;;;;;;;8.30;1.87;;;3.70;99.90;;;;;;5007394;28;20917;-79
2021/03/16 01:23:24;;;;;;;7.30;1.80;;;3.60;99.90;;;;;;5005352;28;20508;-79
2021/03/16 01:26:04;;;;;;;7.77;2.10;;;3.60;99.90;;;;;;4990394;28;20483;-79
2021/03/16 01:28:32;;;;;;;8.53;2.00;;;3.60;99.90;;;;;;5009180;28;20530;-79
2021/03/16 01:31:00;;;;;;;4.80;1.63;;;3.80;99.90;;;;;;5010224;28;20538;-79
2021/03/16 01:33:29;;;;;;;13.00;2.10;;;3.60;99.90;;;;;;5009809;28;20554;-79
2021/03/16 01:35:56;;;;;;;9.83;2.00;;;3.70;99.90;;;;;;5009704;28;20468;-79
2021/03/16 01:38:24;;;;;;;9.80;2.23;;;3.70;99.90;;;;;;5009185;28;20987;-79
2021/03/16 01:40:52;;;;;;;10.73;2.00;;;3.70;99.90;;;;;;5024438;28;20483;-79
2021/03/16 01:43:25;;;;;;;6.43;2.00;;;3.70;99.90;;;;;;5003715;28;21929;-79
2021/03/16 01:45:52;;;;;;;10.30;2.70;;;3.80;99.90;;;;;;5016202;28;20615;-79
2021/03/16 01:48:26;;;;;;;13.20;2.37;;;4.00;99.90;;;;;;5004861;28;20887;-79
2021/03/16 01:50:54;;;;;;;6.27;2.20;;;4.00;99.90;;;;;;4997836;28;20473;-79
2021/03/16 01:53:23;;;;;;;13.37;2.47;;;4.20;99.90;;;;;;4989687;28;20486;-79
2021/03/16 01:55:53;;;;;;;10.20;2.17;;;4.20;99.90;;;;;;4989776;28;20489;-79
2021/03/16 01:58:43;;;;;;;11.80;1.83;;;4.10;99.90;;;;;;4989147;28;20478;-79
2021/03/16 02:01:29;;;;;;;7.60;2.43;;;3.90;99.90;;;;;;4989445;28;20617;-79
2021/03/16 02:04:15;;;;;;;7.53;2.27;;;3.90;99.90;;;;;;4998048;28;20492;-79
2021/03/16 02:07:11;;;;;;;14.40;2.03;;;3.90;99.90;;;;;;5007523;28;20491;-79
2021/03/16 02:10:06;;;;;;;7.37;1.77;;;3.70;99.90;;;;;;5000504;28;20575;-79
2021/03/16 02:13:01;;;;;;;9.70;2.20;;;3.80;99.90;;;;;;4999304;28;20481;-79
2021/03/16 02:15:55;;;;;;;8.40;1.90;;;3.90;99.90;;;;;;5009317;28;20490;-79
2021/03/16 02:18:49;;;;;;;9.07;2.60;;;4.00;99.90;;;;;;5008698;28;20481;-79
2021/03/16 02:21:37;;;;;;;9.57;2.00;;;4.10;99.90;;;;;;5008356;28;20483;-79
2021/03/16 02:24:55;;;;;;;10.27;2.07;;;4.00;99.90;;;;;;5022495;28;20486;-79
2021/03/16 02:28:11;;;;;;;10.80;2.40;;;3.90;99.90;;;;;;5008577;28;20525;-79
2021/03/16 02:31:01;;;;;;;10.40;2.37;;;3.80;99.90;;;;;;5008630;28;20477;-79
2021/03/16 02:33:49;;;;;;;10.10;2.10;;;3.80;99.90;;;;;;5008533;28;20931;-79
2021/03/16 02:36:37;;;;;;;9.73;2.37;;;3.80;99.90;;;;;;4989312;28;20551;-79
2021/03/16 02:39:26;;;;;;;13.13;2.93;;;4.00;99.90;;;;;;4989532;28;20482;-79
2021/03/16 02:42:15;;;;;;;8.47;2.40;;;3.80;99.90;;;;;;4999457;28;20509;-79
2021/03/16 02:45:04;;;;;;;10.83;2.63;;;3.70;99.90;;;;;;5007852;28;20983;-79
2021/03/16 02:47:52;;;;;;;11.30;2.90;;;3.60;99.90;;;;;;4997344;28;20854;-79
2021/03/16 02:50:38;;;;;;;11.20;2.60;;;3.70;99.90;;;;;;4988629;28;20470;-79
2021/03/16 02:53:26;;;;;;;13.73;2.80;;;3.70;99.90;;;;;;4989199;28;20479;-79
2021/03/16 02:56:14;;;;;;;11.03;2.83;;;3.70;99.90;;;;;;4989082;28;20543;-79
2021/03/16 02:59:03;;;;;;;15.13;2.80;;;3.70;99.90;;;;;;4988569;28;20476;-79
2021/03/16 03:01:49;;;;;;;16.57;3.57;;;3.70;99.90;;;;;;5000046;28;20507;-79
2021/03/16 03:04:37;;;;;;;18.50;3.30;;;3.70;99.90;;;;;;4996352;28;20487;-79
2021/03/16 03:07:25;;;;;;;13.07;2.73;;;3.70;99.90;;;;;;4999853;28;20598;-79
2021/03/16 03:10:12;;;;;;;18.77;3.77;;;3.60;99.90;;;;;;4993718;28;20508;-79
2021/03/16 03:12:59;;;;;;;15.17;4.23;;;3.50;99.90;;;;;;5008764;28;20479;-79
2021/03/16 03:15:46;;;;;;;17.07;3.90;;;3.60;99.90;;;;;;5007955;28;20868;-79
2021/03/16 03:18:32;;;;;;;19.23;3.60;;;3.60;99.90;;;;;;5007790;28;20917;-79
2021/03/16 03:21:25;;;;;;;19.17;3.47;;;3.50;99.90;;;;;;5008690;28;20507;-79
2021/03/16 03:24:20;;;;;;;20.40;3.60;;;3.50;99.90;;;;;;4998534;28;20505;-79
2021/03/16 03:27:08;;;;;;;22.97;3.63;;;3.40;99.90;;;;;;5008153;28;21328;-79
2021/03/16 03:29:56;;;;;;;18.17;3.90;;;3.40;99.90;;;;;;5008131;28;20477;-79
2021/03/16 03:32:42;;;;;;;19.37;4.00;;;3.40;99.90;;;;;;5009546;28;20500;-79
2021/03/16 03:35:30;;;;;;;18.27;4.07;;;3.40;99.90;;;;;;5011374;28;21126;-79
2021/03/16 03:38:19;;;;;;;20.47;4.37;;;3.40;99.90;;;;;;5005195;28;20486;-79
2021/03/16 03:41:05;;;;;;;18.83;4.07;;;3.40;99.90;;;;;;5001416;28;20479;-79
2021/03/16 03:43:53;;;;;;;18.73;4.27;;;3.40;99.90;;;;;;5000371;28;20491;-80
2021/03/16 03:46:41;;;;;;;21.73;4.93;;;3.50;99.90;;;;;;4996067;28;20491;-79
2021/03/16 03:49:27;;;;;;;24.57;5.10;;;3.50;99.90;;;;;;4990646;28;20975;-79
2021/03/16 03:52:16;;;;;;;25.07;4.87;;;3.50;99.90;;;;;;4991975;28;20479;-80
2021/03/16 03:55:07;;;;;;;17.33;4.23;;;3.50;99.90;;;;;;4991964;28;20476;-80
2021/03/16 03:58:11;;;;;;;24.63;4.67;;;3.60;99.90;;;;;;5001760;28;20506;-79
2021/03/16 04:01:00;;;;;;;27.93;5.30;;;3.70;99.90;;;;;;5000631;28;20560;-79
2021/03/16 04:03:46;;;;;;;24.07;5.13;;;3.70;99.90;;;;;;5003273;28;20499;-79
2021/03/16 04:06:33;;;;;;;28.53;5.00;;;3.70;99.90;;;;;;5002909;28;20568;-79
2021/03/16 04:09:20;;;;;;;27.03;5.30;;;3.70;99.90;;;;;;4991566;28;20597;-79
2021/03/16 04:12:09;;;;;;;22.43;6.20;;;3.70;99.90;;;;;;4991528;28;20497;-79
2021/03/16 04:14:56;;;;;;;28.07;4.83;;;3.80;99.90;;;;;;5008551;28;20563;-79
2021/03/16 04:17:45;;;;;;;19.67;5.07;;;3.70;99.90;;;;;;5010690;28;20512;-79
2021/03/16 04:20:31;;;;;;;18.03;4.20;;;3.80;99.90;;;;;;5010770;28;20877;-80
2021/03/16 04:23:18;;;;;;;20.77;4.33;;;3.80;99.90;;;;;;5010405;28;20485;-79
2021/03/16 04:26:05;;;;;;;18.87;4.40;;;3.90;99.90;;;;;;5010850;28;20548;-79
2021/03/16 04:28:56;;;;;;;22.40;4.37;;;4.00;99.90;;;;;;5010887;28;20540;-79
2021/03/16 04:31:43;;;;;;;30.77;6.68;;;4.00;99.90;;;;;;5009742;28;20458;-79
2021/03/16 04:34:29;;;;;;;23.23;4.73;;;4.00;99.90;;;;;;5010226;28;20236;-79
2021/03/16 04:37:16;;;;;;;24.03;4.73;;;4.00;99.90;;;;;;5006548;28;20514;-79
2021/03/16 04:40:02;;;;;;;20.50;4.33;;;4.10;99.90;;;;;;5004684;28;20482;-79
2021/03/16 04:42:48;;;;;;;21.20;3.97;;;4.10;99.90;;;;;;5004339;28;20488;-79
2021/03/16 04:45:36;;;;;;;21.37;4.37;;;4.20;99.90;;;;;;5010675;28;20538;-79
2021/03/16 04:48:21;;;;;;;25.20;4.53;;;4.20;99.90;;;;;;5010146;28;20487;-80
2021/03/16 04:51:07;;;;;;;23.47;4.40;;;4.20;99.90;;;;;;5010501;28;20526;-79
2021/03/16 04:53:54;;;;;;;22.33;4.33;;;4.30;99.90;;;;;;5010137;28;20821;-79
2021/03/16 04:56:43;;;;;;;21.10;4.67;;;4.30;99.90;;;;;;5008231;28;20513;-79
2021/03/16 04:59:29;;;;;;;21.17;4.70;;;4.30;99.90;;;;;;5002234;28;20828;-79
2021/03/16 05:02:16;;;;;;;24.97;4.13;;;4.40;99.90;;;;;;5001645;28;20498;-79
2021/03/16 05:05:06;;;;;;;15.50;3.40;;;4.40;99.90;;;;;;4993753;28;21324;-79
2021/03/16 05:07:52;;;;;;;19.30;3.50;;;4.40;99.90;;;;;;5007541;28;20475;-79
2021/03/16 05:10:38;;;;;;;23.40;3.90;;;4.40;99.90;;;;;;5010084;28;20492;-79
2021/03/16 05:13:25;;;;;;;18.07;3.23;;;4.40;99.90;;;;;;5008065;28;20475;-79
2021/03/16 05:16:12;;;;;;;17.97;3.43;;;4.50;99.90;;;;;;5004479;28;20610;-81
2021/03/16 05:19:00;;;;;;;14.00;3.97;;;4.40;99.90;;;;;;5009124;28;20482;-79
2021/03/16 05:21:46;;;;;;;16.93;4.03;;;4.50;99.90;;;;;;5009760;28;20950;-79
2021/03/16 05:24:32;;;;;;;22.00;3.87;;;4.50;99.90;;;;;;5009946;28;20480;-79
2021/03/16 05:27:18;;;;;;;18.37;3.90;;;4.50;99.90;;;;;;5009823;28;20477;-80
2021/03/16 05:30:06;;;;;;;23.33;3.93;;;4.50;99.90;;;;;;5009199;28;20503;-79
2021/03/16 05:32:55;;;;;;;14.97;3.63;;;4.40;99.90;;;;;;5008569;28;20515;-79
2021/03/16 05:35:42;;;;;;;15.87;3.40;;;4.40;99.90;;;;;;4994973;28;20487;-79
2021/03/16 05:38:28;;;;;;;18.23;3.20;;;4.40;99.90;;;;;;5002668;28;21004;-79
2021/03/16 05:41:15;;;;;;;16.10;3.60;;;4.40;99.90;;;;;;5000815;28;20549;-79
2021/03/16 05:44:02;;;;;;;14.80;3.03;;;4.40;99.90;;;;;;5001984;28;20499;-79
2021/03/16 05:46:49;;;;;;;23.23;3.57;;;4.40;99.90;;;;;;5006959;28;20562;-78
2021/03/16 05:49:37;;;;;;;13.37;2.80;;;4.40;99.90;;;;;;5001307;28;20476;-79
2021/03/16 05:52:24;;;;;;;15.17;2.60;;;4.50;99.90;;;;;;5001255;28;20636;-79
2021/03/16 05:55:11;;;;;;;13.67;2.87;;;4.50;99.90;;;;;;5000516;28;20493;-80
2021/03/16 05:57:59;;;;;;;13.20;3.07;;;4.50;99.90;;;;;;5006679;28;21040;-81
2021/03/16 06:00:46;;;;;;;15.67;3.43;;;4.50;99.90;;;;;;4995944;28;20998;-81
2021/03/16 06:03:31;;;;;;;15.27;4.10;;;4.50;99.90;;;;;;5005905;28;20477;-81
2021/03/16 06:06:18;;;;;;;19.13;3.27;;;4.50;99.90;;;;;;5003453;28;20479;-82
2021/03/16 06:09:06;;;;;;;15.87;3.03;;;4.50;99.90;;;;;;5008418;28;20554;-81
2021/03/16 06:11:53;;;;;;;13.10;2.90;;;4.60;99.90;;;;;;5009069;28;22676;-81
2021/03/16 06:14:41;;;;;;;17.17;3.20;;;4.60;99.90;;;;;;5004118;28;20497;-81
2021/03/16 06:17:28;;;;;;;17.17;3.60;;;4.60;99.90;;;;;;5005770;28;20488;-81
2021/03/16 06:20:28;;;;;;;17.07;3.10;;;4.60;99.90;;;;;;4999767;28;20486;-81
2021/03/16 06:23:15;;;;;;;17.60;3.23;;;4.60;99.90;;;;;;5000423;28;20496;-81
2021/03/16 06:26:04;;;;;;;16.57;3.43;;;4.60;99.90;;;;;;5004315;28;20618;-81
2021/03/16 06:28:50;;;;;;;18.57;3.97;;;4.70;99.90;;;;;;5003373;28;20477;-82
2021/03/16 06:31:38;;;;;;;14.53;3.40;;;4.70;99.90;;;;;;4991962;28;20493;-82
2021/03/16 06:34:26;;;;;;;16.17;3.30;;;4.70;99.90;;;;;;5001249;28;20475;-81
2021/03/16 06:37:18;;;;;;;20.20;3.10;;;4.70;99.90;;;;;;4988905;28;20503;-81
2021/03/16 06:40:08;;;;;;;14.73;3.20;;;4.70;99.90;;;;;;4988522;28;20579;-82
2021/03/16 06:43:06;;;;;;;15.30;2.90;;;4.70;99.90;;;;;;4988692;28;20483;-81
2021/03/16 06:45:55;;;;;;;17.87;2.67;;;4.80;99.90;;;;;;4989145;28;21743;-82
2021/03/16 06:48:42;;;;;;;16.87;3.07;;;4.80;99.90;;;;;;4988526;28;20619;-81
2021/03/16 06:51:31;;;;;;;15.77;2.53;;;4.90;99.90;;;;;;5001258;28;20565;-81
2021/03/16 06:54:19;;;;;;;12.13;2.37;;;4.90;99.90;;;;;;4991379;28;21030;-81
2021/03/16 06:57:06;;;;;;;12.43;2.40;;;4.90;99.90;;;;;;5003808;28;20930;-81
2021/03/16 06:59:54;;;;;;;20.30;3.20;;;4.90;99.90;;;;;;4994743;28;21023;-81
2021/03/16 07:02:41;;;;;;;13.13;2.37;;;5.00;99.90;;;;;;5007951;28;20540;-81
2021/03/16 07:05:29;;;;;;;15.23;2.40;;;5.00;99.90;;;;;;5007145;28;21094;-81
2021/03/16 07:08:17;;;;;;;15.37;2.83;;;5.00;99.90;;;;;;5010928;28;21118;-81
2021/03/16 07:11:07;;;;;;;19.10;2.97;;;5.10;99.90;;;;;;5011902;28;20491;-81
2021/03/16 07:13:53;;;;;;;18.10;2.50;;;5.10;99.90;;;;;;5009799;28;20465;-81
2021/03/16 07:16:41;;;;;;;15.30;3.27;;;5.10;99.90;;;;;;5012506;28;20977;-82
2021/03/16 07:19:30;;;;;;;13.00;2.27;;;5.20;99.90;;;;;;5009043;28;20464;-82
2021/03/16 07:22:21;;;;;;;17.33;2.80;;;5.20;99.90;;;;;;5012099;28;20485;-81
2021/03/16 07:25:09;;;;;;;13.27;2.67;;;5.20;99.90;;;;;;5012177;28;20570;-82
2021/03/16 07:27:56;;;;;;;14.77;3.23;;;5.30;99.90;;;;;;5006680;28;20482;-82
2021/03/16 07:30:51;;;;;;;13.03;2.17;;;5.30;99.90;;;;;;5001869;28;20584;-82
2021/03/16 07:33:39;;;;;;;11.93;2.77;;;5.40;99.90;;;;;;4996402;28;20758;-82
2021/03/16 07:36:25;;;;;;;13.07;2.67;;;5.40;99.90;;;;;;5003039;28;20247;-82
2021/03/16 07:39:18;;;;;;;16.27;2.80;;;5.40;99.90;;;;;;5011340;28;20491;-82
2021/03/16 07:42:07;;;;;;;14.47;2.53;;;5.40;99.90;;;;;;5000092;28;20542;-82
2021/03/16 07:44:53;;;;;;;15.33;3.00;;;5.40;99.90;;;;;;4992986;28;20583;-82
2021/03/16 07:47:39;;;;;;;19.70;2.90;;;5.40;99.90;;;;;;4993118;28;20499;-82
2021/03/16 07:50:29;;;;;;;14.37;2.80;;;5.50;99.90;;;;;;5006517;28;20474;-81
2021/03/16 07:53:33;;;;;;;12.77;2.30;;;5.50;99.90;;;;;;4998951;28;20487;-82
2021/03/16 07:56:26;;;;;;;15.27;2.67;;;5.50;99.90;;;;;;5010196;28;20483;-82
2021/03/16 07:59:30;;;;;;;12.67;2.70;;;5.50;99.90;;;;;;5009865;28;20527;-83
2021/03/16 08:02:27;;;;;;;15.77;2.43;;;5.50;99.90;;;;;;5003565;28;20997;-81
2021/03/16 08:05:18;;;;;;;17.03;3.03;;;5.50;99.90;;;;;;5012174;28;20549;-82
2021/03/16 08:08:17;;;;;;;12.33;2.83;;;5.50;99.90;;;;;;5013374;28;20498;-82
2021/03/16 08:11:09;;;;;;;12.27;2.20;;;5.60;99.90;;;;;;4998145;28;20483;-82
2021/03/16 08:13:58;;;;;;;12.33;2.70;;;5.60;99.90;;;;;;4992047;28;20475;-82
2021/03/16 08:16:45;;;;;;;14.07;2.83;;;5.60;99.90;;;;;;4993207;28;20306;-82
2021/03/16 08:19:39;;;;;;;19.63;3.50;;;5.70;99.90;;;;;;4991836;28;20952;-81
2021/03/16 08:22:28;;;;;;;17.10;3.13;;;5.70;99.90;;;;;;4992058;28;20474;-82
2021/03/16 08:25:16;;;;;;;14.23;3.27;;;5.70;99.90;;;;;;5002492;28;20267;-81
2021/03/16 08:28:07;;;;;;;13.47;2.47;;;5.70;99.90;;;;;;5007839;28;20478;-81
2021/03/16 08:30:55;;;;;;;17.17;3.40;;;5.60;99.90;;;;;;5004136;28;20491;-81
2021/03/16 08:33:49;;;;;;;15.60;2.83;;;5.60;99.90;;;;;;5012493;28;20236;-81
2021/03/16 08:36:40;;;;;;;20.53;2.90;;;5.60;99.90;;;;;;5008556;28;20680;-82
2021/03/16 08:39:33;;;;;;;24.53;4.47;;;5.70;99.90;;;;;;5003543;28;21050;-81
2021/03/16 08:42:29;;;;;;;19.57;3.57;;;5.60;99.90;;;;;;5011680;28;20533;-83
2021/03/16 08:45:26;;;;;;;15.97;2.60;;;5.60;99.90;;;;;;5005797;28;20592;-81
2021/03/16 08:48:43;;;;;;;23.80;3.60;;;5.60;99.90;;;;;;4996935;28;20282;-82
2021/03/16 08:51:31;;;;;;;17.27;2.80;;;5.70;99.90;;;;;;5004482;28;20246;-82
2021/03/16 08:54:26;;;;;;;16.73;3.17;;;5.70;99.90;;;;;;5006478;28;20255;-81
2021/03/16 08:57:17;;;;;;;19.30;3.30;;;5.80;99.90;;;;;;4993772;28;20499;-82
2021/03/16 09:00:07;;;;;;;16.17;3.03;;;5.80;99.90;;;;;;4991780;28;20491;-82
2021/03/16 09:02:55;;;;;;;18.27;3.30;;;5.80;99.90;;;;;;4991902;28;20272;-82
2021/03/16 09:05:42;;;;;;;22.83;3.53;;;5.80;99.90;;;;;;5007757;28;20367;-81
2021/03/16 09:08:28;;;;;;;15.90;3.00;;;5.80;99.90;;;;;;5010443;28;20247;-82
2021/03/16 09:11:31;;;;;;;13.13;2.73;;;5.80;99.90;;;;;;5010500;28;20491;-82
2021/03/16 09:14:20;;;;;;;22.77;3.60;;;5.80;99.90;;;;;;4993099;28;20262;-82
2021/03/16 09:17:07;;;;;;;19.70;3.23;;;5.80;99.90;;;;;;4992095;28;20315;-82
2021/03/16 09:19:53;;;;;;;20.23;3.23;;;5.80;99.90;;;;;;5003275;28;20231;-82
2021/03/16 09:22:41;;;;;;;25.77;5.37;;;5.80;99.90;;;;;;5006134;28;20486;-82
2021/03/16 09:25:31;;;;;;;20.23;4.30;;;5.80;99.90;;;;;;4996436;28;20347;-82
2021/03/16 09:28:17;;;;;;;23.43;3.10;;;5.80;99.90;;;;;;5005783;28;20256;-82
2021/03/16 09:31:03;;;;;;;21.60;3.30;;;5.90;99.90;;;;;;4994456;28;20251;-82
2021/03/16 09:33:51;;;;;;;15.83;3.30;;;6.00;99.90;;;;;;4990818;28;20528;-82
2021/03/16 09:36:37;;;;;;;19.33;3.33;;;6.00;99.90;;;;;;4990055;28;20245;-82
2021/03/16 09:39:28;;;;;;;20.33;3.33;;;6.00;99.90;;;;;;4979814;28;20230;-82
2021/03/16 09:42:13;;;;;;;17.73;3.07;;;6.00;99.90;;;;;;5008322;28;20237;-82
2021/03/16 09:44:46;;;;;;;20.23;3.20;;;6.00;99.90;;;;;;5022709;28;20232;-82
2021/03/16 09:47:32;;;;;;;20.37;3.13;;;6.00;99.90;;;;;;5018141;28;20681;-82
2021/03/16 09:50:12;;;;;;;19.37;3.23;;;6.00;99.90;;;;;;5004995;28;20498;-81
2021/03/16 09:52:40;;;;;;;15.53;2.50;;;6.00;99.90;;;;;;5001394;28;20906;-81
2021/03/16 09:55:10;;;;;;;25.30;3.23;;;6.00;99.90;;;;;;4991435;28;20496;-81
2021/03/16 09:57:38;;;;;;;17.73;2.67;;;6.00;99.90;;;;;;5005432;28;20530;-81
2021/03/16 10:00:10;;;;;;;16.43;3.37;;;6.10;99.90;;;;;;5011672;28;20475;-81
2021/03/16 10:02:44;;;;;;;16.70;3.30;;;6.20;99.90;;;;;;5012660;28;20530;-81
2021/03/16 10:05:16;;;;;;;18.47;3.50;;;6.20;99.90;;;;;;5008228;28;20500;-82
2021/03/16 10:07:55;;;;;;;18.47;3.17;;;6.20;99.90;;;;;;5007211;28;20579;-81
2021/03/16 10:10:25;;;;;;;13.43;2.83;;;6.20;99.90;;;;;;4997039;28;20487;-81
2021/03/16 10:12:56;;;;;;;16.03;2.80;;;6.20;99.90;;;;;;5008881;28;20229;-81
2021/03/16 10:15:28;;;;;;;16.50;2.53;;;6.20;99.90;;;;;;5011989;28;20466;-81
2021/03/16 10:18:01;;;;;;;14.23;2.67;;;6.30;99.90;;;;;;5000368;28;20479;-81
2021/03/16 10:20:34;;;;;;;14.93;3.37;;;6.30;99.90;;;;;;5000145;28;20236;-81
2021/03/16 10:23:06;;;;;;;13.60;2.70;;;6.40;99.90;;;;;;5017061;28;20262;-82
2021/03/16 10:25:35;;;;;;;14.83;2.60;;;6.50;99.90;;;;;;5004418;28;20272;-81
2021/03/16 10:28:08;;;;;;;13.67;2.43;;;6.50;99.90;;;;;;5010164;28;20229;-81
2021/03/16 10:30:38;;;;;;;13.97;3.13;;;6.50;99.90;;;;;;4992751;28;20238;-82
2021/03/16 10:33:09;;;;;;;16.67;2.73;;;6.50;99.90;;;;;;5008145;28;20596;-81
2021/03/16 10:35:39;;;;;;;12.20;2.27;;;6.50;99.90;;;;;;5026931;28;20316;-81
2021/03/16 10:38:08;;;;;;;17.60;3.07;;;6.50;99.90;;;;;;5005855;28;20276;-81
2021/03/16 10:40:38;;;;;;;16.23;2.83;;;6.60;99.90;;;;;;4998862;28;20519;-81
2021/03/16 10:43:05;;;;;;;15.20;2.10;;;6.60;99.90;;;;;;4999702;28;20639;-81
2021/03/16 10:45:33;;;;;;;11.93;2.00;;;6.60;99.90;;;;;;5003020;28;20237;-81
2021/03/16 10:48:00;;;;;;;16.67;2.63;;;6.60;99.90;;;;;;4997108;28;20245;-81
2021/03/16 10:50:28;;;;;;;11.57;2.47;;;6.60;99.90;;;;;;4999539;28;20487;-81
2021/03/16 10:53:00;;;;;;;19.07;3.00;;;6.70;99.90;;;;;;5006397;28;20237;-81
2021/03/16 10:55:28;;;;;;;14.40;2.77;;;6.80;99.90;;;;;;5008101;28;20538;-81
2021/03/16 10:57:56;;;;;;;12.57;2.50;;;6.80;99.90;;;;;;5007715;28;20243;-81
2021/03/16 11:00:24;;;;;;;16.23;2.70;;;6.80;99.90;;;;;;5008140;28;20475;-82
2021/03/16 11:02:53;;;;;;;14.00;2.50;;;6.80;99.90;;;;;;5008347;28;20221;-81
2021/03/16 11:05:21;;;;;;;11.83;2.10;;;6.90;99.90;;;;;;5008400;28;20356;-81
2021/03/16 11:07:48;;;;;;;14.57;2.80;;;6.80;99.90;;;;;;4998314;28;20701;-81
2021/03/16 11:10:17;;;;;;;11.50;2.30;;;6.80;99.90;;;;;;4990207;28;20273;-81
2021/03/16 11:12:45;;;;;;;13.43;2.20;;;6.80;99.90;;;;;;5002878;28;20248;-81
2021/03/16 11:15:12;;;;;;;15.63;2.20;;;6.80;99.90;;;;;;4988897;28;20283;-82
2021/03/16 11:17:40;;;;;;;16.90;3.07;;;6.90;99.90;;;;;;4993729;28;20299;-81
2021/03/16 11:20:10;;;;;;;9.40;2.37;;;7.30;99.90;;;;;;5000412;28;20296;-82
2021/03/16 11:22:38;;;;;;;13.03;2.87;;;7.70;99.90;;;;;;5001809;28;20225;-81
2021/03/16 11:25:07;;;;;;;9.87;1.70;;;8.30;99.90;;;;;;5031956;28;20280;-81
2021/03/16 11:27:36;;;;;;;10.50;2.37;;;8.60;99.90;;;;;;5001757;28;20256;-81
2021/03/16 11:30:06;;;;;;;11.23;2.40;;;8.50;99.90;;;;;;5006713;28;20245;-82
2021/03/16 11:32:34;;;;;;;9.33;2.07;;;8.40;99.90;;;;;;5007036;28;20247;-81
2021/03/16 11:35:21;;;;;;;11.67;2.53;;;8.20;99.90;;;;;;5006772;28;20232;-81
2021/03/16 11:38:07;;;;;;;13.73;2.37;;;7.80;99.90;;;;;;5000386;28;20248;-81
2021/03/16 11:40:54;;;;;;;10.30;1.83;;;7.40;99.90;;;;;;5001871;28;20244;-80
2021/03/16 11:43:41;;;;;;;8.73;1.87;;;7.40;99.90;;;;;;4994583;28;20240;-81
2021/03/16 11:46:27;;;;;;;7.07;1.77;;;7.20;99.90;;;;;;4995086;28;20764;-80
2021/03/16 11:49:14;;;;;;;9.67;1.97;;;7.00;99.90;;;;;;4993780;28;20248;-81
2021/03/16 11:52:00;;;;;;;12.33;1.70;;;6.90;99.90;;;;;;4995949;28;20240;-80
2021/03/16 11:54:48;;;;;;;6.87;2.10;;;6.90;99.90;;;;;;4998599;28;20320;-79
2021/03/16 11:57:34;;;;;;;13.33;2.30;;;7.10;99.90;;;;;;5005361;28;20707;-79
2021/03/16 12:00:22;;;;;;;12.17;1.73;;;7.10;99.90;;;;;;5000467;28;20232;-79
2021/03/16 12:03:08;;;;;;;11.90;2.03;;;7.10;99.90;;;;;;5005276;28;20387;-79
2021/03/16 12:05:55;;;;;;;15.17;2.33;;;7.10;99.90;;;;;;5002071;28;20244;-79
2021/03/16 12:08:42;;;;;;;10.40;2.33;;;7.00;99.90;;;;;;4998583;28;20266;-79
2021/03/16 12:11:28;;;;;;;11.37;1.67;;;7.10;99.90;;;;;;4993517;28;20248;-79
2021/03/16 12:14:14;;;;;;;7.07;1.90;;;7.10;99.90;;;;;;5002096;28;20256;-78
2021/03/16 12:17:01;;;;;;;6.93;1.53;;;7.00;99.90;;;;;;5000495;28;20643;-78
2021/03/16 12:19:48;;;;;;;10.50;1.70;;;6.90;99.90;;;;;;5002990;28;20264;-78
2021/03/16 12:22:34;;;;;;;8.57;1.40;;;6.80;99.90;;;;;;4998726;28;20304;-78
2021/03/16 12:25:20;;;;;;;12.50;1.70;;;6.90;99.90;;;;;;5005132;28;20256;-78
2021/03/16 12:28:09;;;;;;;10.67;2.23;;;6.80;99.90;;;;;;5000395;28;20369;-78
2021/03/16 12:30:55;;;;;;;11.73;2.00;;;6.80;99.90;;;;;;5004761;28;20248;-78
2021/03/16 12:33:42;;;;;;;11.07;1.80;;;6.80;99.90;;;;;;5005335;28;20240;-79
2021/03/16 12:36:29;;;;;;;11.17;1.93;;;6.90;99.90;;;;;;5003823;28;20239;-79
2021/03/16 12:39:16;;;;;;;12.53;2.10;;;7.00;99.90;;;;;;5005334;28;20325;-78
2021/03/16 12:42:02;;;;;;;6.40;1.50;;;7.10;99.90;;;;;;5000909;28;20283;-78
2021/03/16 12:44:48;;;;;;;7.23;1.97;;;7.20;99.90;;;;;;5000459;28;20237;-78
2021/03/16 12:47:34;;;;;;;6.00;1.40;;;7.20;99.90;;;;;;5008966;28;20619;-79
2021/03/16 12:50:22;;;;;;;7.13;1.10;;;6.90;99.90;;;;;;5001861;28;20804;-78
2021/03/16 12:53:08;;;;;;;5.73;1.40;;;6.60;99.90;;;;;;4992948;28;20248;-79
2021/03/16 12:55:54;;;;;;;8.47;1.67;;;6.60;99.90;;;;;;4990547;28;20252;-78
2021/03/16 12:58:40;;;;;;;6.97;1.47;;;6.50;99.90;;;;;;4990316;28;20248;-78
2021/03/16 13:01:27;;;;;;;10.93;1.40;;;6.50;99.90;;;;;;5011098;28;20236;-78
2021/03/16 13:04:15;;;;;;;6.60;1.40;;;6.50;99.90;;;;;;5001287;28;20565;-79
2021/03/16 13:07:03;;;;;;;7.73;1.33;;;6.40;99.90;;;;;;5009308;28;20244;-79
2021/03/16 13:09:50;;;;;;;6.57;1.30;;;6.30;99.90;;;;;;5007383;28;20239;-78
2021/03/16 13:12:37;;;;;;;4.47;1.30;;;6.40;99.90;;;;;;4997234;28;20253;-78
2021/03/16 13:15:23;;;;;;;6.23;1.27;;;6.50;99.90;;;;;;5006057;28;20245;-78
2021/03/16 13:18:10;;;;;;;5.27;1.53;;;6.50;99.90;;;;;;4998938;28;20981;-78
2021/03/16 13:20:57;;;;;;;13.43;1.80;;;6.60;99.90;;;;;;5001194;28;20272;-78
2021/03/16 13:23:44;;;;;;;5.70;1.47;;;6.60;99.90;;;;;;5007065;28;20247;-78
2021/03/16 13:26:31;;;;;;;7.93;1.20;;;6.60;99.90;;;;;;5009258;28;20774;-78
2021/03/16 13:29:17;;;;;;;4.90;1.50;;;6.60;99.90;;;;;;5000490;28;20365;-79
2021/03/16 13:32:04;;;;;;;6.67;1.30;;;6.50;99.90;;;;;;4993649;28;20594;-78
2021/03/16 13:34:50;;;;;;;10.37;1.53;;;6.50;99.90;;;;;;5007445;28;20306;-78
2021/03/16 13:37:36;;;;;;;6.23;1.50;;;6.50;99.90;;;;;;4998100;28;20486;-78
2021/03/16 13:40:23;;;;;;;8.53;1.33;;;6.50;99.90;;;;;;5004001;28;20240;-78
2021/03/16 13:43:09;;;;;;;5.27;1.33;;;6.50;99.90;;;;;;4999264;28;20603;-80
2021/03/16 13:45:56;;;;;;;6.87;1.60;;;6.40;99.90;;;;;;5009657;28;20868;-78
2021/03/16 13:48:42;;;;;;;5.23;1.50;;;6.40;99.90;;;;;;5007796;28;20251;-79
2021/03/16 13:51:28;;;;;;;6.00;1.40;;;6.50;99.90;;;;;;5004659;28;20384;-79
2021/03/16 13:54:14;;;;;;;4.13;1.10;;;6.50;99.90;;;;;;4997653;28;20245;-79
2021/03/16 13:57:01;;;;;;;5.77;1.00;;;6.50;99.90;;;;;;4989077;28;20244;-79
2021/03/16 13:59:47;;;;;;;6.43;1.40;;;6.70;99.90;;;;;;4988724;28;20599;-79
2021/03/16 14:02:34;;;;;;;3.30;0.90;;;6.70;99.90;;;;;;4988743;28;20653;-79
2021/03/16 14:05:20;;;;;;;5.07;1.10;;;6.50;99.90;;;;;;5006286;28;20839;-79
2021/03/16 14:08:07;;;;;;;6.43;1.10;;;6.40;99.90;;;;;;5008593;28;20247;-79
2021/03/16 14:10:53;;;;;;;4.30;1.03;;;6.20;99.90;;;;;;5007267;28;20239;-78
2021/03/16 14:13:40;;;;;;;8.10;1.23;;;6.10;99.90;;;;;;4999741;28;20479;-79